createdAt,value
2022-11-16T00:02:21.221Z,18.58
2022-11-16T00:05:28.146Z,18.92
2022-11-16T00:08:33.582Z,18.60
2022-11-16T00:11:38.078Z,18.08
2022-11-16T00:14:40.606Z,18.42
2022-11-16T00:17:43.319Z,18.67
2022-11-16T00:20:45.850Z,19.80
2022-11-16T00:23:48.580Z,17.70
2022-11-16T00:26:53.012Z,19.73
2022-11-16T00:29:55.764Z,19.48
2022-11-16T00:33:05.486Z,18.20
2022-11-16T00:36:11.162Z,18.50
2022-11-16T00:39:15.069Z,19.17
2022-11-16T00:42:17.912Z,19.40
2022-11-16T00:45:20.437Z,18.15
2022-11-16T00:48:23.248Z,16.62
2022-11-16T00:51:25.941Z,19.37
2022-11-16T00:54:28.780Z,18.53
2022-11-16T00:57:31.341Z,19.87
2022-11-16T01:00:34.148Z,18.08
2022-11-16T01:03:37.955Z,18.00
2022-11-16T01:06:40.866Z,18.95
2022-11-16T01:09:43.346Z,18.23
2022-11-16T01:12:47.371Z,18.62
2022-11-16T01:15:49.954Z,19.05
2022-11-16T01:18:54.021Z,18.65
2022-11-16T01:21:56.598Z,17.90
2022-11-16T01:24:59.318Z,19.47
2022-11-16T01:28:01.802Z,20.02
2022-11-16T01:31:05.744Z,19.25
2022-11-16T01:34:09.182Z,19.15
2022-11-16T01:37:12.052Z,18.65
2022-11-16T01:40:15.355Z,18.93
2022-11-16T01:43:25.721Z,19.17
2022-11-16T01:46:30.146Z,19.30
2022-11-16T01:49:36.508Z,19.70
2022-11-16T01:53:08.519Z,19.87
2022-11-16T01:56:12.850Z,18.63
2022-11-16T01:59:16.139Z,18.95
2022-11-16T02:02:19.131Z,20.98
2022-11-16T02:05:33.681Z,18.55
2022-11-16T02:09:18.146Z,20.65
2022-11-16T02:12:43.588Z,19.17
2022-11-16T02:15:52.114Z,20.95
2022-11-16T02:19:10.718Z,21.23
2022-11-16T02:22:32.017Z,20.10
2022-11-16T02:25:50.396Z,21.52
2022-11-16T02:29:16.552Z,19.63
2022-11-16T02:32:31.897Z,18.98
2022-11-16T02:35:44.359Z,21.10
2022-11-16T02:39:01.758Z,20.77
2022-11-16T02:42:07.317Z,20.05
2022-11-16T02:45:13.025Z,21.20
2022-11-16T02:48:26.232Z,21.67
2022-11-16T02:51:29.623Z,21.15
2022-11-16T02:54:32.679Z,19.70
2022-11-16T02:57:43.526Z,18.80
2022-11-16T03:01:01.589Z,18.00
2022-11-16T03:04:20.251Z,22.33
2022-11-16T03:07:27.373Z,20.55
2022-11-16T03:10:50.568Z,19.65
2022-11-16T03:14:02.916Z,19.50
2022-11-16T03:17:32.910Z,20.07
2022-11-16T03:20:36.211Z,19.80
2022-11-16T03:23:39.436Z,20.12
2022-11-16T03:26:49.687Z,19.60
2022-11-16T03:29:59.545Z,20.62
2022-11-16T03:33:19.674Z,20.37
2022-11-16T03:36:28.320Z,19.12
2022-11-16T03:39:33.971Z,20.50
2022-11-16T03:42:37.946Z,19.60
2022-11-16T03:45:41.063Z,16.40
2022-11-16T03:48:44.481Z,19.97
2022-11-16T03:51:48.081Z,19.92
2022-11-16T03:54:51.127Z,19.70
2022-11-16T03:57:54.006Z,19.40
2022-11-16T04:00:57.144Z,18.77
2022-11-16T04:04:02.363Z,19.40
2022-11-16T04:07:23.588Z,19.80
2022-11-16T04:10:44.947Z,20.00
2022-11-16T04:14:09.054Z,18.35
2022-11-16T04:17:34.214Z,22.58
2022-11-16T04:20:55.623Z,20.83
2022-11-16T04:24:13.881Z,17.80
2022-11-16T04:27:36.140Z,19.23
2022-11-16T04:31:01.220Z,14.87
2022-11-16T04:34:22.753Z,17.45
2022-11-16T04:37:44.623Z,18.93
2022-11-16T04:40:47.961Z,20.30
2022-11-16T04:43:50.780Z,18.98
2022-11-16T04:47:06.929Z,19.92
2022-11-16T04:50:10.190Z,19.37
2022-11-16T04:53:13.946Z,20.33
2022-11-16T04:56:18.617Z,18.37
2022-11-16T04:59:22.503Z,19.95
2022-11-16T05:02:26.082Z,19.90
2022-11-16T05:05:29.016Z,19.20
2022-11-16T05:08:32.881Z,15.40
2022-11-16T05:11:35.852Z,19.40
2022-11-16T05:14:38.811Z,18.45
2022-11-16T05:17:41.254Z,20.73
2022-11-16T05:21:00.977Z,19.23
2022-11-16T05:24:22.590Z,20.53
2022-11-16T05:27:27.238Z,18.35
2022-11-16T05:30:30.360Z,20.55
2022-11-16T05:33:33.955Z,19.58
2022-11-16T05:36:36.792Z,17.95
2022-11-16T05:39:39.946Z,15.43
2022-11-16T05:42:42.575Z,18.05
2022-11-16T05:45:45.576Z,18.77
2022-11-16T05:48:49.015Z,21.87
2022-11-16T05:51:52.016Z,19.30
2022-11-16T05:54:54.791Z,19.97
2022-11-16T05:57:58.197Z,17.45
2022-11-16T06:01:01.139Z,17.77
2022-11-16T06:04:04.026Z,18.00
2022-11-16T06:07:07.151Z,17.33
2022-11-16T06:10:10.573Z,17.20
2022-11-16T06:13:13.855Z,18.48
2022-11-16T06:16:16.789Z,19.05
2022-11-16T06:19:19.242Z,17.52
2022-11-16T06:22:22.035Z,17.95
2022-11-16T06:25:24.734Z,18.17
2022-11-16T06:28:28.233Z,17.37
2022-11-16T06:31:30.896Z,17.90
2022-11-16T06:34:36.811Z,21.90
2022-11-16T06:37:39.514Z,19.08
2022-11-16T06:40:43.135Z,19.17
2022-11-16T06:43:45.697Z,19.35
2022-11-16T06:46:49.295Z,21.77
2022-11-16T06:49:51.984Z,17.67
2022-11-16T06:52:55.540Z,18.70
2022-11-16T06:56:03.173Z,17.43
2022-11-16T06:59:06.749Z,15.70
2022-11-16T07:02:11.315Z,18.33
2022-11-16T07:05:14.835Z,18.48
2022-11-16T07:08:17.826Z,15.40
2022-11-16T07:11:20.897Z,16.93
2022-11-16T07:14:23.870Z,17.30
2022-11-16T07:17:26.967Z,20.12
2022-11-16T07:20:29.541Z,19.12
2022-11-16T07:23:33.553Z,19.65
2022-11-16T07:26:36.667Z,17.30
2022-11-16T07:29:40.758Z,16.45
2022-11-16T07:32:44.042Z,17.65
2022-11-16T07:35:47.193Z,17.73
2022-11-16T07:38:49.731Z,17.20
2022-11-16T07:41:54.415Z,15.70
2022-11-16T07:44:57.409Z,15.80
2022-11-16T07:48:01.082Z,18.42
2022-11-16T07:51:08.258Z,29.50
2022-11-16T07:54:15.197Z,19.12
2022-11-16T07:57:17.700Z,17.20
2022-11-16T08:00:20.542Z,13.10
2022-11-16T08:03:24.934Z,15.75
2022-11-16T08:06:30.101Z,16.60
2022-11-16T08:09:34.803Z,17.52
2022-11-16T08:12:37.664Z,17.67
2022-11-16T08:15:41.361Z,17.75
2022-11-16T08:18:44.891Z,16.48
2022-11-16T08:21:48.070Z,16.45
2022-11-16T08:24:50.787Z,15.05
2022-11-16T08:27:53.697Z,15.13
2022-11-16T08:30:57.097Z,15.70
2022-11-16T08:34:00.614Z,15.98
2022-11-16T08:37:03.582Z,15.90
2022-11-16T08:40:08.098Z,15.02
2022-11-16T08:43:12.258Z,16.10
2022-11-16T08:46:15.635Z,14.52
2022-11-16T08:49:18.999Z,15.95
2022-11-16T08:52:22.852Z,16.83
2022-11-16T08:55:26.041Z,12.73
2022-11-16T08:58:29.177Z,15.13
2022-11-16T09:01:32.914Z,13.15
2022-11-16T09:04:37.162Z,14.50
2022-11-16T09:07:40.880Z,13.93
2022-11-16T09:10:44.093Z,14.95
2022-11-16T09:13:48.066Z,9.87
2022-11-16T09:16:52.325Z,13.70
2022-11-16T09:19:55.416Z,15.18
2022-11-16T09:22:58.191Z,12.27
2022-11-16T09:26:03.831Z,13.48
2022-11-16T09:29:11.751Z,13.40
2022-11-16T09:32:14.216Z,13.27
2022-11-16T09:35:17.478Z,13.73
2022-11-16T09:38:30.524Z,13.77
2022-11-16T09:41:50.713Z,14.15
2022-11-16T09:45:01.344Z,13.27
2022-11-16T09:48:06.117Z,13.88
2022-11-16T09:51:12.814Z,12.73
2022-11-16T09:54:20.362Z,12.18
2022-11-16T09:57:29.757Z,15.40
2022-11-16T10:00:33.565Z,16.23
2022-11-16T10:03:41.307Z,14.93
2022-11-16T10:07:03.783Z,14.07
2022-11-16T10:10:15.848Z,13.02
2022-11-16T10:13:37.162Z,12.10
2022-11-16T10:16:48.096Z,12.10
2022-11-16T10:19:56.495Z,8.65
2022-11-16T10:23:15.225Z,12.32
2022-11-16T10:26:46.285Z,10.90
2022-11-16T10:30:17.245Z,13.00
2022-11-16T10:33:21.139Z,13.83
2022-11-16T10:36:27.543Z,13.10
2022-11-16T10:39:31.482Z,29.08
2022-11-16T10:42:39.458Z,20.45
2022-11-16T10:45:47.727Z,13.88
2022-11-16T10:49:05.356Z,16.70
2022-11-16T10:52:07.891Z,15.63
2022-11-16T10:55:15.601Z,18.12
2022-11-16T10:58:18.120Z,17.15
2022-11-16T11:01:38.465Z,14.30
2022-11-16T11:04:41.013Z,19.70
2022-11-16T11:07:55.315Z,13.68
2022-11-16T11:11:25.007Z,12.88
2022-11-16T11:14:27.770Z,14.73
2022-11-16T11:17:32.734Z,16.47
2022-11-16T11:20:38.077Z,13.63
2022-11-16T11:23:50.905Z,35.08
2022-11-16T11:26:55.814Z,54.15
2022-11-16T11:29:59.227Z,51.40
2022-11-16T11:33:09.850Z,28.57
2022-11-16T11:36:21.253Z,17.53
2022-11-16T11:39:24.130Z,17.37
2022-11-16T11:42:26.762Z,12.43
2022-11-16T11:45:46.709Z,11.50
2022-11-16T11:48:58.536Z,12.53
2022-11-16T11:52:18.887Z,12.77
2022-11-16T11:55:21.575Z,14.32
2022-11-16T11:58:35.864Z,12.10
2022-11-16T12:02:06.456Z,12.10
2022-11-16T12:05:48.905Z,11.90
2022-11-16T12:09:05.116Z,11.47
2022-11-16T12:12:21.690Z,13.68
2022-11-16T12:15:59.349Z,12.05
2022-11-16T12:19:11.596Z,11.52
2022-11-16T12:22:28.969Z,12.90
2022-11-16T12:25:41.622Z,11.90
2022-11-16T12:28:56.237Z,12.85
2022-11-16T12:32:01.648Z,11.30
2022-11-16T12:35:33.724Z,12.10
2022-11-16T12:38:57.988Z,14.23
2022-11-16T12:42:09.242Z,12.37
2022-11-16T12:45:36.497Z,11.38
2022-11-16T12:48:49.592Z,11.95
2022-11-16T12:52:15.290Z,11.70
2022-11-16T12:55:32.333Z,10.73
2022-11-16T12:58:52.612Z,9.97
2022-11-16T13:02:08.217Z,9.60
2022-11-16T13:05:18.986Z,9.45
2022-11-16T13:08:21.471Z,9.52
2022-11-16T13:11:28.126Z,9.10
2022-11-16T13:14:37.614Z,10.73
2022-11-16T13:17:54.323Z,10.05
2022-11-16T13:21:13.499Z,8.85
2022-11-16T13:24:47.068Z,10.75
2022-11-16T13:28:10.837Z,10.30
2022-11-16T13:31:26.192Z,9.83
2022-11-16T13:34:33.281Z,10.80
2022-11-16T13:37:39.021Z,10.05
2022-11-16T13:40:41.738Z,9.80
2022-11-16T13:43:50.650Z,10.93
2022-11-16T13:46:56.186Z,10.00
2022-11-16T13:50:01.617Z,11.65
2022-11-16T13:54:10.737Z,11.55
2022-11-16T13:57:02.869Z,10.18
2022-11-16T14:00:11.813Z,8.97
2022-11-16T14:03:17.597Z,9.93
2022-11-16T14:06:19.964Z,8.80
2022-11-16T14:09:50.415Z,8.82
2022-11-16T14:12:54.464Z,8.82
2022-11-16T14:16:15.597Z,9.17
2022-11-16T14:19:44.471Z,8.57
2022-11-16T14:23:06.735Z,7.78
2022-11-16T14:26:24.629Z,8.35
2022-11-16T14:29:36.743Z,8.32
2022-11-16T14:32:47.832Z,7.97
2022-11-16T14:35:52.793Z,7.23
2022-11-16T14:38:55.597Z,8.05
2022-11-16T14:42:02.093Z,6.80
2022-11-16T14:45:16.483Z,6.78
2022-11-16T14:48:21.865Z,7.23
2022-11-16T14:51:31.622Z,7.77
2022-11-16T14:54:39.407Z,7.55
2022-11-16T14:57:42.133Z,8.15
2022-11-16T15:00:58.022Z,8.05
2022-11-16T15:04:06.514Z,7.77
2022-11-16T15:07:11.363Z,9.77
2022-11-16T15:10:17.368Z,8.85
2022-11-16T15:13:21.869Z,8.55
2022-11-16T15:16:24.334Z,9.85
2022-11-16T15:19:30.848Z,11.63
2022-11-16T15:22:40.622Z,10.73
2022-11-16T15:25:52.788Z,11.48
2022-11-16T15:28:55.408Z,11.57
2022-11-16T15:31:58.536Z,14.70
2022-11-16T15:35:05.194Z,21.17
2022-11-16T15:38:28.451Z,20.40
2022-11-16T15:41:31.071Z,15.80
2022-11-16T15:44:33.842Z,12.48
2022-11-16T15:47:37.453Z,12.93
2022-11-16T15:50:40.396Z,12.43
2022-11-16T15:53:45.184Z,9.70
2022-11-16T15:56:48.314Z,8.65
2022-11-16T15:59:56.270Z,9.23
2022-11-16T16:03:04.303Z,8.52
2022-11-16T16:06:08.717Z,9.83
2022-11-16T16:09:18.117Z,8.77
2022-11-16T16:12:22.724Z,9.27
2022-11-16T16:15:29.883Z,10.15
2022-11-16T16:18:41.718Z,11.88
2022-11-16T16:21:45.956Z,14.20
2022-11-16T16:24:48.747Z,19.07
2022-11-16T16:27:51.247Z,18.35
2022-11-16T16:30:54.035Z,23.25
2022-11-16T16:33:56.747Z,21.23
2022-11-16T16:36:59.671Z,22.57
2022-11-16T16:40:02.279Z,16.70
2022-11-16T16:43:05.116Z,17.60
2022-11-16T16:46:07.573Z,22.37
2022-11-16T16:49:10.831Z,17.80
2022-11-16T16:52:13.776Z,16.67
2022-11-16T16:55:16.645Z,17.60
2022-11-16T16:58:19.349Z,8.77
2022-11-16T17:01:22.245Z,11.45
2022-11-16T17:04:25.533Z,10.13
2022-11-16T17:07:29.579Z,10.80
2022-11-16T17:10:32.599Z,9.60
2022-11-16T17:13:35.771Z,9.13
2022-11-16T17:16:38.705Z,10.85
2022-11-16T17:19:41.798Z,17.60
2022-11-16T17:22:44.571Z,17.87
2022-11-16T17:25:47.597Z,21.40
2022-11-16T17:28:55.589Z,15.70
2022-11-16T17:31:58.999Z,14.25
2022-11-16T17:35:01.762Z,11.60
2022-11-16T17:38:04.857Z,16.33
2022-11-16T17:41:15.681Z,17.87
2022-11-16T17:44:21.893Z,17.75
2022-11-16T17:47:24.833Z,16.40
2022-11-16T17:50:27.918Z,12.50
2022-11-16T17:53:32.801Z,10.00
2022-11-16T17:56:36.137Z,11.10
2022-11-16T17:59:41.117Z,11.50
2022-11-16T18:02:44.003Z,10.65
2022-11-16T18:05:46.872Z,13.02
2022-11-16T18:08:49.842Z,10.33
2022-11-16T18:11:52.863Z,10.37
2022-11-16T18:15:26.333Z,11.12
2022-11-16T18:18:18.369Z,12.43
2022-11-16T18:21:21.186Z,12.43
2022-11-16T18:24:24.079Z,13.20
2022-11-16T18:27:26.796Z,11.60
2022-11-16T18:30:29.833Z,13.15
2022-11-16T18:33:33.157Z,12.90
2022-11-16T18:36:36.188Z,9.68
2022-11-16T18:39:38.864Z,12.80
2022-11-16T18:42:41.944Z,11.63
2022-11-16T18:45:44.462Z,10.60
2022-11-16T18:48:47.594Z,10.70
2022-11-16T18:51:50.573Z,9.07
2022-11-16T18:54:53.535Z,13.67
2022-11-16T18:57:56.279Z,12.43
2022-11-16T19:01:04.263Z,11.40
2022-11-16T19:04:08.841Z,11.60
2022-11-16T19:07:13.133Z,10.52
2022-11-16T19:10:16.341Z,11.30
2022-11-16T19:13:19.720Z,10.57
2022-11-16T19:16:24.167Z,11.45
2022-11-16T19:19:28.033Z,11.50
2022-11-16T19:22:33.575Z,9.25
2022-11-16T19:25:36.538Z,10.40
2022-11-16T19:28:41.659Z,10.03
2022-11-16T19:31:44.669Z,11.23
2022-11-16T19:34:47.434Z,15.85
2022-11-16T19:37:51.527Z,23.45
2022-11-16T19:40:54.332Z,14.87
2022-11-16T19:43:59.951Z,12.53
2022-11-16T19:47:02.731Z,12.50
2022-11-16T19:50:06.978Z,11.07
2022-11-16T19:53:09.934Z,11.05
2022-11-16T19:56:14.914Z,10.40
2022-11-16T19:59:18.069Z,10.27
2022-11-16T20:02:21.092Z,12.15
2022-11-16T20:05:25.491Z,9.55
2022-11-16T20:08:27.964Z,10.05
2022-11-16T20:11:33.830Z,9.50
2022-11-16T20:14:36.630Z,9.73
2022-11-16T20:17:39.669Z,7.97
2022-11-16T20:20:42.352Z,8.70
2022-11-16T20:23:45.663Z,9.60
2022-11-16T20:26:49.170Z,7.10
2022-11-16T20:29:52.455Z,5.93
2022-11-16T20:32:55.159Z,7.43
2022-11-16T20:36:08.697Z,10.07
2022-11-16T20:39:15.952Z,12.35
2022-11-16T20:42:21.869Z,6.43
2022-11-16T20:45:24.811Z,7.27
2022-11-16T20:48:27.658Z,8.75
2022-11-16T20:51:30.639Z,10.48
2022-11-16T20:54:33.771Z,9.35
2022-11-16T20:57:36.443Z,5.60
2022-11-16T21:00:39.411Z,9.53
2022-11-16T21:03:42.636Z,9.63
2022-11-16T21:06:45.614Z,9.57
2022-11-16T21:10:06.537Z,8.43
2022-11-16T21:13:32.631Z,10.40
2022-11-16T21:16:35.420Z,9.27
2022-11-16T21:19:38.394Z,10.02
2022-11-16T21:22:40.909Z,9.57
2022-11-16T21:25:43.678Z,8.85
2022-11-16T21:28:46.283Z,8.03
2022-11-16T21:31:49.081Z,6.63
2022-11-16T21:34:51.522Z,7.35
2022-11-16T21:37:54.332Z,7.15
2022-11-16T21:40:56.832Z,5.22
2022-11-16T21:43:59.584Z,6.67
2022-11-16T21:47:02.052Z,8.47
2022-11-16T21:53:27.598Z,4.93
2022-11-16T21:56:30.290Z,7.22
2022-11-16T21:59:32.721Z,10.93
2022-11-16T22:02:35.486Z,10.30
2022-11-16T22:05:56.886Z,11.35
2022-11-16T22:08:59.484Z,5.97
2022-11-16T22:12:05.262Z,4.60
2022-11-16T22:15:08.380Z,11.47
2022-11-16T22:18:11.310Z,8.07
2022-11-16T22:21:13.851Z,7.35
2022-11-16T22:24:16.584Z,7.40
2022-11-16T22:27:19.389Z,9.75
2022-11-16T22:30:22.202Z,10.87
2022-11-16T22:33:24.674Z,11.07
2022-11-16T22:36:27.438Z,8.98
2022-11-16T22:39:29.985Z,10.07
2022-11-16T22:42:32.815Z,8.10
2022-11-16T22:45:35.270Z,7.00
2022-11-16T22:48:39.961Z,7.57
2022-11-16T22:51:42.450Z,10.13
2022-11-16T22:54:45.181Z,9.57
2022-11-16T22:57:47.627Z,11.48
2022-11-16T23:00:51.808Z,9.73
2022-11-16T23:03:54.410Z,10.80
2022-11-16T23:06:57.175Z,11.27
2022-11-16T23:09:59.713Z,10.63
2022-11-16T23:13:20.768Z,10.40
2022-11-16T23:16:23.412Z,9.03
2022-11-16T23:19:45.227Z,10.73
2022-11-16T23:23:06.096Z,10.38
2022-11-16T23:26:34.120Z,10.40
2022-11-16T23:29:36.661Z,9.63
2022-11-16T23:32:39.497Z,9.97
2022-11-16T23:35:41.982Z,10.37
2022-11-16T23:38:44.749Z,10.57
2022-11-16T23:42:05.912Z,10.18
2022-11-16T23:45:08.987Z,9.63
2022-11-16T23:48:14.177Z,10.33
2022-11-16T23:51:18.741Z,10.33
2022-11-16T23:54:21.215Z,11.18
2022-11-16T23:57:23.941Z,11.02
